createdAt,value
2023-02-12T00:01:09.644Z,5.50
2023-02-12T00:06:13.581Z,5.47
2023-02-12T00:11:20.406Z,5.43
2023-02-12T00:16:28.753Z,5.47
2023-02-12T00:21:30.723Z,5.45
2023-02-12T00:26:32.557Z,5.49
2023-02-12T00:31:35.673Z,5.46
2023-02-12T00:36:37.416Z,5.43
2023-02-12T00:41:40.292Z,5.36
2023-02-12T00:46:42.094Z,5.30
2023-02-12T00:51:44.114Z,5.31
2023-02-12T01:34:56.724Z,5.28
2023-02-12T01:39:58.563Z,5.29
2023-02-12T01:45:12.583Z,5.26
2023-02-12T01:50:18.820Z,5.22
2023-02-12T01:55:21.368Z,5.20
2023-02-12T02:00:25.078Z,5.21
2023-02-12T02:05:47.096Z,5.19
2023-02-12T02:10:52.360Z,5.23
2023-02-12T02:16:00.149Z,5.30
2023-02-12T02:21:12.397Z,5.33
2023-02-12T02:26:38.831Z,5.35
2023-02-12T02:31:53.660Z,5.40
2023-02-12T02:37:18.127Z,5.42
2023-02-12T03:12:23.539Z,5.50
2023-02-12T03:17:31.427Z,5.46
2023-02-12T03:22:40.042Z,5.46
2023-02-12T03:27:50.188Z,5.44
2023-02-12T03:33:16.186Z,5.51
2023-02-12T03:38:44.498Z,5.65
2023-02-12T03:53:18.019Z,5.77
2023-02-12T03:58:24.272Z,5.71
2023-02-12T04:03:26.389Z,5.63
2023-02-12T04:08:28.697Z,5.59
2023-02-12T04:13:43.144Z,5.61
2023-02-12T04:18:49.519Z,5.69
2023-02-12T04:24:39.195Z,5.84
2023-02-12T04:30:20.232Z,5.94
2023-02-12T04:35:25.010Z,5.98
2023-02-12T04:40:27.212Z,5.96
2023-02-12T04:45:33.062Z,5.89
2023-02-12T04:50:41.297Z,5.93
2023-02-12T04:55:43.742Z,5.97
2023-02-12T05:00:45.489Z,5.88
2023-02-12T05:05:47.320Z,5.79
2023-02-12T05:10:49.063Z,5.80
2023-02-12T05:15:50.893Z,5.80
2023-02-12T05:21:04.432Z,5.79
2023-02-12T05:26:10.826Z,5.82
2023-02-12T05:31:15.797Z,5.89
2023-02-12T05:36:20.659Z,5.92
2023-02-12T05:41:24.450Z,5.95
2023-02-12T05:46:26.391Z,5.98
2023-02-12T05:51:29.088Z,5.95
2023-02-12T05:56:33.180Z,5.81
2023-02-12T06:01:40.317Z,5.75
2023-02-12T06:06:42.431Z,5.83
2023-02-12T06:11:44.749Z,5.77
2023-02-12T06:16:48.587Z,5.79
2023-02-12T06:21:50.795Z,5.84
2023-02-12T06:26:52.511Z,5.84
2023-02-12T06:31:54.368Z,5.90
2023-02-12T06:36:56.234Z,6.02
2023-02-12T06:41:58.140Z,6.12
2023-02-12T06:46:59.968Z,6.28
2023-02-12T06:52:03.418Z,6.35
2023-02-12T06:57:05.406Z,6.40
2023-02-12T07:02:07.183Z,6.51
2023-02-12T07:12:35.101Z,6.87
2023-02-12T07:17:36.893Z,6.98
2023-02-12T07:22:38.624Z,7.09
2023-02-12T07:27:49.759Z,7.21
2023-02-12T07:32:51.413Z,7.30
2023-02-12T08:39:50.140Z,7.26
2023-02-12T08:44:51.761Z,7.33
2023-02-12T08:49:53.436Z,7.35
2023-02-12T08:54:55.129Z,7.36
2023-02-12T08:59:56.845Z,7.57
2023-02-12T09:04:58.544Z,7.75
2023-02-12T09:10:00.336Z,7.67
2023-02-12T09:15:02.046Z,7.53
2023-02-12T09:20:03.964Z,7.52
2023-02-12T09:25:06.493Z,7.28
2023-02-12T09:30:08.914Z,7.22
2023-02-12T09:35:13.358Z,7.30
2023-02-12T09:40:35.890Z,7.35
2023-02-12T09:45:45.223Z,7.32
2023-02-12T09:50:49.750Z,7.42
2023-02-12T09:55:51.794Z,7.44
2023-02-12T10:00:53.936Z,7.92
2023-02-12T10:06:04.277Z,8.21
2023-02-12T10:11:24.754Z,8.07
2023-02-12T10:16:58.010Z,8.01
2023-02-12T10:22:27.173Z,8.12
2023-02-12T10:27:51.373Z,8.52
2023-02-12T10:33:00.637Z,8.70
2023-02-12T10:38:07.793Z,8.79
2023-02-12T10:43:13.052Z,9.02
2023-02-12T10:48:42.278Z,9.27
2023-02-12T10:53:46.795Z,9.26
2023-02-12T10:58:54.648Z,9.33
2023-02-12T11:09:36.239Z,9.59
2023-02-12T11:14:38.033Z,9.49
2023-02-12T11:19:39.737Z,9.55
2023-02-12T11:24:41.419Z,9.45
2023-02-12T11:29:44.586Z,9.12
2023-02-12T11:35:14.141Z,9.30
2023-02-12T11:40:22.285Z,9.46
2023-02-12T11:45:34.190Z,9.75
2023-02-12T11:50:36.030Z,10.12
2023-02-12T11:55:41.143Z,10.23
2023-02-12T12:01:00.910Z,10.26
2023-02-12T12:06:33.455Z,10.45
2023-02-12T12:11:46.874Z,10.45
2023-02-12T12:17:16.860Z,10.52
2023-02-12T12:22:52.098Z,10.46
2023-02-12T12:28:03.167Z,10.26
2023-02-12T12:33:10.814Z,10.17
2023-02-12T12:38:27.125Z,10.11
2023-02-12T12:43:44.292Z,10.11
2023-02-12T12:49:15.620Z,10.12
2023-02-12T12:54:51.613Z,10.14
2023-02-12T13:00:20.984Z,10.09
2023-02-12T13:05:42.166Z,9.99
2023-02-12T13:11:22.450Z,9.74
2023-02-12T13:16:34.599Z,9.62
2023-02-12T13:21:42.939Z,9.89
2023-02-12T13:26:47.541Z,10.10
2023-02-12T13:31:55.045Z,10.42
2023-02-12T13:37:00.916Z,10.83
2023-02-12T13:42:16.953Z,10.96
2023-02-12T13:47:33.306Z,11.23
2023-02-12T13:52:56.628Z,11.17
2023-02-12T13:58:40.145Z,10.46
2023-02-12T14:03:41.859Z,9.63
2023-02-12T14:08:47.979Z,9.49
2023-02-12T14:13:54.857Z,9.50
2023-02-12T14:19:34.587Z,9.42
2023-02-12T14:24:36.318Z,9.58
2023-02-12T14:29:38.237Z,9.73
2023-02-12T14:34:40.137Z,9.80
2023-02-12T14:39:41.849Z,9.82
2023-02-12T14:45:11.211Z,9.85
2023-02-12T14:50:23.013Z,9.70
2023-02-12T14:55:36.789Z,9.39
2023-02-12T15:00:41.532Z,9.13
2023-02-12T15:05:50.949Z,8.90
2023-02-12T15:10:59.591Z,8.63
2023-02-12T15:16:13.550Z,8.33
2023-02-12T15:21:23.377Z,8.09
2023-02-12T15:26:27.422Z,7.91
2023-02-12T15:31:38.733Z,7.70
2023-02-12T15:36:45.887Z,7.50
2023-02-12T15:41:48.889Z,7.38
2023-02-12T15:46:54.694Z,7.30
2023-02-12T15:51:57.719Z,7.18
2023-02-12T15:57:00.520Z,7.21
2023-02-12T16:02:03.644Z,7.18
2023-02-12T16:07:07.779Z,7.15
2023-02-12T16:12:14.740Z,7.08
2023-02-12T16:17:25.587Z,6.99
2023-02-12T16:22:48.755Z,6.88
2023-02-12T16:28:04.535Z,6.79
2023-02-12T16:33:41.062Z,6.67
2023-02-12T16:38:44.635Z,6.59
2023-02-12T16:44:01.543Z,6.45
2023-02-12T16:49:03.997Z,6.23
2023-02-12T16:54:24.366Z,6.05
2023-02-12T16:59:26.541Z,5.99
2023-02-12T17:04:28.670Z,5.95
2023-02-12T17:09:30.433Z,5.82
2023-02-12T17:14:32.136Z,5.66
2023-02-12T17:19:34.179Z,5.54
2023-02-12T17:24:36.047Z,5.48
2023-02-12T17:29:37.713Z,5.50
2023-02-12T17:34:47.997Z,5.56
2023-02-12T17:39:50.678Z,5.56
2023-02-12T17:44:52.894Z,5.41
2023-02-12T17:49:54.586Z,5.37
2023-02-12T17:54:56.329Z,5.32
2023-02-12T17:59:58.692Z,5.22
2023-02-12T18:05:00.320Z,5.13
2023-02-12T18:10:02.098Z,4.86
2023-02-12T18:15:05.483Z,4.73
2023-02-12T18:20:08.166Z,4.64
2023-02-12T18:25:10.884Z,4.53
2023-02-12T18:30:14.012Z,4.39
2023-02-12T18:35:15.887Z,4.30
2023-02-12T18:40:17.725Z,4.23
2023-02-12T18:45:19.607Z,4.15
2023-02-12T18:50:21.482Z,4.14
2023-02-12T18:55:23.122Z,4.10
2023-02-12T19:00:24.928Z,4.10
2023-02-12T19:05:26.697Z,4.07
2023-02-12T19:10:28.564Z,4.00
2023-02-12T19:15:30.402Z,3.75
2023-02-12T19:20:33.764Z,3.76
2023-02-12T19:25:39.841Z,3.87
2023-02-12T19:30:42.116Z,3.69
2023-02-12T19:35:46.194Z,3.64
2023-02-12T19:40:47.875Z,3.72
2023-02-12T19:45:49.785Z,3.67
2023-02-12T19:50:51.684Z,3.66
2023-02-12T19:55:53.983Z,3.72
2023-02-12T20:00:56.033Z,3.71
2023-02-12T20:06:03.439Z,3.73
2023-02-12T20:11:07.222Z,3.76
2023-02-12T20:16:10.554Z,3.82
2023-02-12T20:21:19.472Z,3.94
2023-02-12T20:26:21.630Z,3.99
2023-02-12T20:31:26.508Z,4.01
2023-02-12T20:36:32.821Z,4.08
2023-02-12T20:41:37.396Z,4.14
2023-02-12T20:46:42.572Z,4.09
2023-02-12T20:51:44.837Z,4.07
2023-02-12T20:56:48.587Z,4.12
2023-02-12T21:01:50.426Z,4.22
2023-02-12T21:06:52.315Z,4.16
2023-02-12T21:11:56.145Z,4.20
2023-02-12T21:16:58.079Z,4.30
2023-02-12T21:21:59.914Z,4.24
2023-02-12T21:27:01.690Z,4.26
2023-02-12T21:32:03.740Z,4.46
2023-02-12T21:37:05.678Z,4.71
2023-02-12T21:42:07.457Z,4.95
2023-02-12T21:47:09.347Z,5.12
2023-02-12T21:52:11.629Z,5.27
2023-02-12T21:57:17.995Z,5.41
2023-02-12T22:02:19.852Z,5.55
2023-02-12T22:07:21.765Z,5.67
2023-02-12T22:12:26.285Z,5.77
2023-02-12T22:17:28.022Z,5.79
2023-02-12T22:22:30.171Z,5.80
2023-02-12T22:27:32.957Z,5.79
2023-02-12T22:32:34.946Z,5.84
2023-02-12T22:37:40.691Z,5.86
2023-02-12T22:42:42.442Z,5.89
2023-02-12T22:47:44.216Z,5.91
2023-02-12T22:52:46.046Z,5.84
2023-02-12T22:57:47.810Z,5.78
2023-02-12T23:02:49.604Z,5.73
2023-02-12T23:07:51.362Z,5.73
2023-02-12T23:12:53.083Z,5.72
2023-02-12T23:17:54.865Z,5.69
2023-02-12T23:22:56.608Z,5.70
2023-02-12T23:27:58.322Z,5.67
2023-02-12T23:33:00.199Z,5.62
2023-02-12T23:38:04.376Z,5.58
2023-02-12T23:43:06.182Z,5.57
2023-02-12T23:48:07.946Z,5.57
2023-02-12T23:53:12.755Z,5.57
2023-02-12T23:58:14.423Z,5.62
